sensor_id;sensor_type;location;lat;lon;timestamp;P1;durP1;ratioP1;P2;durP2;ratioP2
12267;SDS011;6196;48.398;11.736;2022-08-21T00:02:01;4.30;;;2.97;;
12267;SDS011;6196;48.398;11.736;2022-08-21T00:04:29;5.30;;;2.83;;
12267;SDS011;6196;48.398;11.736;2022-08-21T00:06:57;3.40;;;3.03;;
12267;SDS011;6196;48.398;11.736;2022-08-21T00:09:27;4.67;;;2.97;;
12267;SDS011;6196;48.398;11.736;2022-08-21T00:11:53;3.50;;;3.20;;
12267;SDS011;6196;48.398;11.736;2022-08-21T00:14:20;5.30;;;3.03;;
12267;SDS011;6196;48.398;11.736;2022-08-21T00:16:47;4.87;;;3.10;;
12267;SDS011;6196;48.398;11.736;2022-08-21T00:19:14;2.97;;;2.60;;
12267;SDS011;6196;48.398;11.736;2022-08-21T00:21:41;4.07;;;3.00;;
12267;SDS011;6196;48.398;11.736;2022-08-21T00:24:09;3.23;;;2.93;;
12267;SDS011;6196;48.398;11.736;2022-08-21T00:26:37;6.70;;;3.03;;
12267;SDS011;6196;48.398;11.736;2022-08-21T00:29:05;3.90;;;2.80;;
12267;SDS011;6196;48.398;11.736;2022-08-21T00:31:31;2.67;;;2.43;;
12267;SDS011;6196;48.398;11.736;2022-08-21T00:33:59;3.43;;;2.80;;
12267;SDS011;6196;48.398;11.736;2022-08-21T00:36:26;3.50;;;2.90;;
12267;SDS011;6196;48.398;11.736;2022-08-21T00:38:55;3.57;;;2.77;;
12267;SDS011;6196;48.398;11.736;2022-08-21T00:41:22;3.37;;;2.90;;
12267;SDS011;6196;48.398;11.736;2022-08-21T00:44:04;4.10;;;3.20;;
12267;SDS011;6196;48.398;11.736;2022-08-21T00:46:34;4.83;;;3.30;;
12267;SDS011;6196;48.398;11.736;2022-08-21T00:49:03;3.60;;;3.10;;
12267;SDS011;6196;48.398;11.736;2022-08-21T00:51:34;3.20;;;2.90;;
12267;SDS011;6196;48.398;11.736;2022-08-21T00:54:06;5.23;;;2.97;;
12267;SDS011;6196;48.398;11.736;2022-08-21T00:56:45;5.07;;;3.20;;
12267;SDS011;6196;48.398;11.736;2022-08-21T00:59:20;3.90;;;3.10;;
12267;SDS011;6196;48.398;11.736;2022-08-21T01:01:49;3.10;;;2.67;;
12267;SDS011;6196;48.398;11.736;2022-08-21T01:04:16;4.73;;;2.97;;
12267;SDS011;6196;48.398;11.736;2022-08-21T01:06:44;5.93;;;3.30;;
12267;SDS011;6196;48.398;11.736;2022-08-21T01:09:12;4.13;;;3.10;;
12267;SDS011;6196;48.398;11.736;2022-08-21T01:11:40;5.37;;;3.17;;
12267;SDS011;6196;48.398;11.736;2022-08-21T01:14:09;3.13;;;2.93;;
12267;SDS011;6196;48.398;11.736;2022-08-21T01:16:42;5.17;;;3.33;;
12267;SDS011;6196;48.398;11.736;2022-08-21T01:19:14;3.70;;;3.17;;
12267;SDS011;6196;48.398;11.736;2022-08-21T01:21:43;3.60;;;3.30;;
12267;SDS011;6196;48.398;11.736;2022-08-21T01:24:10;6.40;;;3.20;;
12267;SDS011;6196;48.398;11.736;2022-08-21T01:26:37;3.27;;;2.97;;
12267;SDS011;6196;48.398;11.736;2022-08-21T01:29:11;3.67;;;2.77;;
12267;SDS011;6196;48.398;11.736;2022-08-21T01:31:46;3.53;;;3.23;;
12267;SDS011;6196;48.398;11.736;2022-08-21T01:34:13;3.43;;;2.90;;
12267;SDS011;6196;48.398;11.736;2022-08-21T01:36:42;3.67;;;3.27;;
12267;SDS011;6196;48.398;11.736;2022-08-21T01:39:11;2.60;;;2.40;;
12267;SDS011;6196;48.398;11.736;2022-08-21T01:41:38;4.07;;;2.90;;
12267;SDS011;6196;48.398;11.736;2022-08-21T01:44:05;4.27;;;2.73;;
12267;SDS011;6196;48.398;11.736;2022-08-21T01:46:32;3.07;;;2.27;;
12267;SDS011;6196;48.398;11.736;2022-08-21T01:48:59;6.50;;;2.93;;
12267;SDS011;6196;48.398;11.736;2022-08-21T01:51:26;2.50;;;2.30;;
12267;SDS011;6196;48.398;11.736;2022-08-21T01:53:53;3.57;;;2.83;;
12267;SDS011;6196;48.398;11.736;2022-08-21T01:56:20;2.83;;;2.63;;
12267;SDS011;6196;48.398;11.736;2022-08-21T01:58:47;2.97;;;2.77;;
12267;SDS011;6196;48.398;11.736;2022-08-21T02:01:14;2.83;;;2.60;;
12267;SDS011;6196;48.398;11.736;2022-08-21T02:03:42;4.20;;;2.73;;
12267;SDS011;6196;48.398;11.736;2022-08-21T02:06:12;2.90;;;2.70;;
12267;SDS011;6196;48.398;11.736;2022-08-21T02:08:43;5.13;;;2.70;;
12267;SDS011;6196;48.398;11.736;2022-08-21T02:11:11;3.27;;;2.97;;
12267;SDS011;6196;48.398;11.736;2022-08-21T02:13:38;4.17;;;3.10;;
12267;SDS011;6196;48.398;11.736;2022-08-21T02:16:06;3.30;;;3.00;;
12267;SDS011;6196;48.398;11.736;2022-08-21T02:18:34;3.43;;;3.13;;
12267;SDS011;6196;48.398;11.736;2022-08-21T02:21:01;4.77;;;3.10;;
12267;SDS011;6196;48.398;11.736;2022-08-21T02:23:30;4.10;;;3.10;;
12267;SDS011;6196;48.398;11.736;2022-08-21T02:25:59;4.93;;;3.17;;
12267;SDS011;6196;48.398;11.736;2022-08-21T02:28:29;4.03;;;3.63;;
12267;SDS011;6196;48.398;11.736;2022-08-21T02:30:56;5.17;;;4.00;;
12267;SDS011;6196;48.398;11.736;2022-08-21T02:33:24;3.63;;;3.20;;
12267;SDS011;6196;48.398;11.736;2022-08-21T02:35:52;4.40;;;3.17;;
12267;SDS011;6196;48.398;11.736;2022-08-21T02:38:21;5.37;;;3.40;;
12267;SDS011;6196;48.398;11.736;2022-08-21T02:40:52;3.77;;;3.47;;
12267;SDS011;6196;48.398;11.736;2022-08-21T02:43:21;3.80;;;3.50;;
12267;SDS011;6196;48.398;11.736;2022-08-21T02:45:50;3.57;;;3.27;;
12267;SDS011;6196;48.398;11.736;2022-08-21T02:48:22;4.27;;;3.00;;
12267;SDS011;6196;48.398;11.736;2022-08-21T02:51:02;3.90;;;3.33;;
12267;SDS011;6196;48.398;11.736;2022-08-21T02:53:39;3.97;;;3.20;;
12267;SDS011;6196;48.398;11.736;2022-08-21T02:56:09;3.93;;;3.20;;
12267;SDS011;6196;48.398;11.736;2022-08-21T02:58:40;4.67;;;3.33;;
12267;SDS011;6196;48.398;11.736;2022-08-21T03:01:17;2.87;;;2.67;;
12267;SDS011;6196;48.398;11.736;2022-08-21T03:03:46;3.03;;;2.83;;
12267;SDS011;6196;48.398;11.736;2022-08-21T03:06:17;3.37;;;3.07;;
12267;SDS011;6196;48.398;11.736;2022-08-21T03:08:46;3.30;;;3.00;;
12267;SDS011;6196;48.398;11.736;2022-08-21T03:11:14;4.13;;;2.67;;
12267;SDS011;6196;48.398;11.736;2022-08-21T03:13:42;3.70;;;3.13;;
12267;SDS011;6196;48.398;11.736;2022-08-21T03:16:09;3.30;;;3.00;;
12267;SDS011;6196;48.398;11.736;2022-08-21T03:18:36;4.00;;;3.17;;
12267;SDS011;6196;48.398;11.736;2022-08-21T03:21:05;5.00;;;3.57;;
12267;SDS011;6196;48.398;11.736;2022-08-21T03:23:32;3.93;;;3.50;;
12267;SDS011;6196;48.398;11.736;2022-08-21T03:25:59;4.03;;;3.70;;
12267;SDS011;6196;48.398;11.736;2022-08-21T03:28:26;4.23;;;3.60;;
12267;SDS011;6196;48.398;11.736;2022-08-21T03:30:54;4.90;;;3.90;;
12267;SDS011;6196;48.398;11.736;2022-08-21T03:33:21;4.67;;;3.87;;
12267;SDS011;6196;48.398;11.736;2022-08-21T03:35:59;3.80;;;3.50;;
12267;SDS011;6196;48.398;11.736;2022-08-21T03:38:31;3.90;;;3.43;;
12267;SDS011;6196;48.398;11.736;2022-08-21T03:41:00;6.10;;;3.93;;
12267;SDS011;6196;48.398;11.736;2022-08-21T03:43:28;5.30;;;3.97;;
12267;SDS011;6196;48.398;11.736;2022-08-21T03:45:57;4.40;;;4.10;;
12267;SDS011;6196;48.398;11.736;2022-08-21T03:48:27;4.53;;;3.80;;
12267;SDS011;6196;48.398;11.736;2022-08-21T03:50:55;6.70;;;3.80;;
12267;SDS011;6196;48.398;11.736;2022-08-21T03:53:22;5.10;;;3.93;;
12267;SDS011;6196;48.398;11.736;2022-08-21T03:55:50;6.07;;;4.13;;
12267;SDS011;6196;48.398;11.736;2022-08-21T03:58:19;5.30;;;3.90;;
12267;SDS011;6196;48.398;11.736;2022-08-21T04:00:50;4.50;;;3.90;;
12267;SDS011;6196;48.398;11.736;2022-08-21T04:03:20;3.73;;;3.43;;
12267;SDS011;6196;48.398;11.736;2022-08-21T04:05:47;6.67;;;3.93;;
12267;SDS011;6196;48.398;11.736;2022-08-21T04:08:15;4.30;;;3.80;;
12267;SDS011;6196;48.398;11.736;2022-08-21T04:10:45;4.50;;;3.50;;
12267;SDS011;6196;48.398;11.736;2022-08-21T04:13:17;3.93;;;3.53;;
12267;SDS011;6196;48.398;11.736;2022-08-21T04:15:45;3.50;;;3.20;;
12267;SDS011;6196;48.398;11.736;2022-08-21T04:18:12;4.10;;;3.70;;
12267;SDS011;6196;48.398;11.736;2022-08-21T04:20:39;3.30;;;3.10;;
12267;SDS011;6196;48.398;11.736;2022-08-21T04:23:15;3.20;;;2.90;;
12267;SDS011;6196;48.398;11.736;2022-08-21T04:25:49;3.53;;;2.80;;
12267;SDS011;6196;48.398;11.736;2022-08-21T04:28:18;3.37;;;2.70;;
12267;SDS011;6196;48.398;11.736;2022-08-21T04:30:45;3.43;;;3.10;;
12267;SDS011;6196;48.398;11.736;2022-08-21T04:33:12;4.77;;;3.10;;
12267;SDS011;6196;48.398;11.736;2022-08-21T04:35:39;3.80;;;3.50;;
12267;SDS011;6196;48.398;11.736;2022-08-21T04:38:08;3.30;;;3.00;;
12267;SDS011;6196;48.398;11.736;2022-08-21T04:40:35;3.50;;;3.20;;
12267;SDS011;6196;48.398;11.736;2022-08-21T04:43:05;4.03;;;2.97;;
12267;SDS011;6196;48.398;11.736;2022-08-21T04:45:36;3.17;;;2.93;;
12267;SDS011;6196;48.398;11.736;2022-08-21T04:48:11;3.13;;;2.90;;
12267;SDS011;6196;48.398;11.736;2022-08-21T04:51:00;3.30;;;3.00;;
12267;SDS011;6196;48.398;11.736;2022-08-21T04:56:09;3.30;;;3.00;;
12267;SDS011;6196;48.398;11.736;2022-08-21T04:58:41;5.07;;;3.37;;
12267;SDS011;6196;48.398;11.736;2022-08-21T05:01:11;4.63;;;2.77;;
12267;SDS011;6196;48.398;11.736;2022-08-21T05:03:43;4.80;;;3.10;;
12267;SDS011;6196;48.398;11.736;2022-08-21T05:06:13;3.97;;;3.10;;
12267;SDS011;6196;48.398;11.736;2022-08-21T05:08:43;3.50;;;3.20;;
12267;SDS011;6196;48.398;11.736;2022-08-21T05:11:12;3.90;;;3.03;;
12267;SDS011;6196;48.398;11.736;2022-08-21T05:13:39;4.77;;;3.00;;
12267;SDS011;6196;48.398;11.736;2022-08-21T05:16:07;3.20;;;3.00;;
12267;SDS011;6196;48.398;11.736;2022-08-21T05:18:34;4.93;;;3.17;;
12267;SDS011;6196;48.398;11.736;2022-08-21T05:21:01;3.27;;;3.03;;
12267;SDS011;6196;48.398;11.736;2022-08-21T05:23:29;5.07;;;3.37;;
12267;SDS011;6196;48.398;11.736;2022-08-21T05:25:57;3.90;;;3.10;;
12267;SDS011;6196;48.398;11.736;2022-08-21T05:28:24;3.33;;;3.07;;
12267;SDS011;6196;48.398;11.736;2022-08-21T05:30:52;5.43;;;3.77;;
12267;SDS011;6196;48.398;11.736;2022-08-21T05:33:19;3.90;;;3.60;;
12267;SDS011;6196;48.398;11.736;2022-08-21T05:35:49;4.10;;;3.80;;
12267;SDS011;6196;48.398;11.736;2022-08-21T05:38:22;4.37;;;3.97;;
12267;SDS011;6196;48.398;11.736;2022-08-21T05:40:54;5.40;;;3.93;;
12267;SDS011;6196;48.398;11.736;2022-08-21T05:43:21;4.60;;;4.20;;
12267;SDS011;6196;48.398;11.736;2022-08-21T05:45:48;4.93;;;4.00;;
12267;SDS011;6196;48.398;11.736;2022-08-21T05:48:20;4.50;;;4.10;;
12267;SDS011;6196;48.398;11.736;2022-08-21T05:50:50;4.50;;;4.10;;
12267;SDS011;6196;48.398;11.736;2022-08-21T05:53:19;4.73;;;3.93;;
12267;SDS011;6196;48.398;11.736;2022-08-21T05:55:48;5.00;;;4.60;;
12267;SDS011;6196;48.398;11.736;2022-08-21T05:58:17;4.07;;;3.77;;
12267;SDS011;6196;48.398;11.736;2022-08-21T06:00:48;4.03;;;3.63;;
12267;SDS011;6196;48.398;11.736;2022-08-21T06:03:18;4.17;;;3.87;;
12267;SDS011;6196;48.398;11.736;2022-08-21T06:05:47;5.03;;;3.30;;
12267;SDS011;6196;48.398;11.736;2022-08-21T06:08:15;4.23;;;3.40;;
12267;SDS011;6196;48.398;11.736;2022-08-21T06:10:43;6.80;;;3.70;;
12267;SDS011;6196;48.398;11.736;2022-08-21T06:13:12;4.83;;;3.50;;
12267;SDS011;6196;48.398;11.736;2022-08-21T06:15:42;4.27;;;3.87;;
12267;SDS011;6196;48.398;11.736;2022-08-21T06:18:09;3.57;;;3.27;;
12267;SDS011;6196;48.398;11.736;2022-08-21T06:20:37;4.97;;;3.30;;
12267;SDS011;6196;48.398;11.736;2022-08-21T06:23:06;3.13;;;2.83;;
12267;SDS011;6196;48.398;11.736;2022-08-21T06:25:33;3.87;;;3.17;;
12267;SDS011;6196;48.398;11.736;2022-08-21T06:28:04;4.13;;;3.50;;
12267;SDS011;6196;48.398;11.736;2022-08-21T06:30:35;3.40;;;3.10;;
12267;SDS011;6196;48.398;11.736;2022-08-21T06:33:05;3.43;;;2.93;;
12267;SDS011;6196;48.398;11.736;2022-08-21T06:35:33;5.97;;;3.10;;
12267;SDS011;6196;48.398;11.736;2022-08-21T06:38:01;3.37;;;3.07;;
12267;SDS011;6196;48.398;11.736;2022-08-21T06:40:28;5.67;;;2.93;;
12267;SDS011;6196;48.398;11.736;2022-08-21T06:43:11;3.40;;;3.10;;
12267;SDS011;6196;48.398;11.736;2022-08-21T06:45:40;3.20;;;2.90;;
12267;SDS011;6196;48.398;11.736;2022-08-21T06:48:08;6.00;;;3.00;;
12267;SDS011;6196;48.398;11.736;2022-08-21T06:50:36;4.90;;;3.03;;
12267;SDS011;6196;48.398;11.736;2022-08-21T06:53:11;3.43;;;3.13;;
12267;SDS011;6196;48.398;11.736;2022-08-21T06:55:45;5.27;;;3.50;;
12267;SDS011;6196;48.398;11.736;2022-08-21T06:58:13;3.43;;;2.90;;
12267;SDS011;6196;48.398;11.736;2022-08-21T07:00:41;3.23;;;3.03;;
12267;SDS011;6196;48.398;11.736;2022-08-21T07:03:16;4.07;;;3.40;;
12267;SDS011;6196;48.398;11.736;2022-08-21T07:05:58;3.50;;;2.67;;
12267;SDS011;6196;48.398;11.736;2022-08-21T07:08:25;4.63;;;3.40;;
12267;SDS011;6196;48.398;11.736;2022-08-21T07:10:55;2.90;;;2.70;;
12267;SDS011;6196;48.398;11.736;2022-08-21T07:13:24;3.50;;;3.20;;
12267;SDS011;6196;48.398;11.736;2022-08-21T07:15:52;3.77;;;2.97;;
12267;SDS011;6196;48.398;11.736;2022-08-21T07:18:19;3.67;;;3.27;;
12267;SDS011;6196;48.398;11.736;2022-08-21T07:20:46;4.20;;;3.50;;
12267;SDS011;6196;48.398;11.736;2022-08-21T07:23:24;3.67;;;3.20;;
12267;SDS011;6196;48.398;11.736;2022-08-21T07:25:55;3.90;;;3.23;;
12267;SDS011;6196;48.398;11.736;2022-08-21T07:28:23;6.37;;;3.57;;
12267;SDS011;6196;48.398;11.736;2022-08-21T07:30:50;3.83;;;3.43;;
12267;SDS011;6196;48.398;11.736;2022-08-21T07:33:20;3.87;;;3.53;;
12267;SDS011;6196;48.398;11.736;2022-08-21T07:35:47;5.17;;;3.63;;
12267;SDS011;6196;48.398;11.736;2022-08-21T07:38:14;5.73;;;3.93;;
12267;SDS011;6196;48.398;11.736;2022-08-21T07:40:40;3.63;;;3.30;;
12267;SDS011;6196;48.398;11.736;2022-08-21T07:43:07;4.30;;;3.40;;
12267;SDS011;6196;48.398;11.736;2022-08-21T07:45:34;3.70;;;3.30;;
12267;SDS011;6196;48.398;11.736;2022-08-21T07:48:01;4.83;;;3.43;;
12267;SDS011;6196;48.398;11.736;2022-08-21T07:50:29;4.83;;;3.37;;
12267;SDS011;6196;48.398;11.736;2022-08-21T07:52:56;3.90;;;3.60;;
12267;SDS011;6196;48.398;11.736;2022-08-21T07:55:23;3.80;;;3.27;;
12267;SDS011;6196;48.398;11.736;2022-08-21T07:57:50;3.57;;;3.27;;
12267;SDS011;6196;48.398;11.736;2022-08-21T08:00:19;4.67;;;3.77;;
12267;SDS011;6196;48.398;11.736;2022-08-21T08:02:50;3.97;;;3.50;;
12267;SDS011;6196;48.398;11.736;2022-08-21T08:05:20;4.90;;;3.83;;
12267;SDS011;6196;48.398;11.736;2022-08-21T08:07:53;4.13;;;3.40;;
12267;SDS011;6196;48.398;11.736;2022-08-21T08:10:21;3.90;;;3.50;;
12267;SDS011;6196;48.398;11.736;2022-08-21T08:12:49;5.00;;;4.50;;
12267;SDS011;6196;48.398;11.736;2022-08-21T08:15:19;4.37;;;4.00;;
12267;SDS011;6196;48.398;11.736;2022-08-21T08:17:50;3.80;;;3.47;;
12267;SDS011;6196;48.398;11.736;2022-08-21T08:20:17;4.23;;;3.93;;
12267;SDS011;6196;48.398;11.736;2022-08-21T08:22:46;5.17;;;4.03;;
12267;SDS011;6196;48.398;11.736;2022-08-21T08:25:15;5.20;;;3.90;;
12267;SDS011;6196;48.398;11.736;2022-08-21T08:27:43;4.47;;;4.00;;
12267;SDS011;6196;48.398;11.736;2022-08-21T08:30:11;4.03;;;3.63;;
12267;SDS011;6196;48.398;11.736;2022-08-21T08:32:40;5.10;;;3.43;;
12267;SDS011;6196;48.398;11.736;2022-08-21T08:35:08;3.70;;;3.40;;
12267;SDS011;6196;48.398;11.736;2022-08-21T08:37:35;4.30;;;3.40;;
12267;SDS011;6196;48.398;11.736;2022-08-21T08:40:11;5.27;;;4.20;;
12267;SDS011;6196;48.398;11.736;2022-08-21T08:43:08;6.13;;;3.77;;
12267;SDS011;6196;48.398;11.736;2022-08-21T08:45:40;4.57;;;4.17;;
12267;SDS011;6196;48.398;11.736;2022-08-21T08:48:13;6.20;;;4.00;;
12267;SDS011;6196;48.398;11.736;2022-08-21T08:50:57;4.70;;;4.30;;
12267;SDS011;6196;48.398;11.736;2022-08-21T08:53:32;6.57;;;4.40;;
12267;SDS011;6196;48.398;11.736;2022-08-21T08:56:11;5.40;;;4.20;;
12267;SDS011;6196;48.398;11.736;2022-08-21T08:58:39;10.20;;;4.50;;
12267;SDS011;6196;48.398;11.736;2022-08-21T09:01:12;5.23;;;4.10;;
12267;SDS011;6196;48.398;11.736;2022-08-21T09:03:46;7.57;;;5.10;;
12267;SDS011;6196;48.398;11.736;2022-08-21T09:11:45;6.87;;;4.47;;
12267;SDS011;6196;48.398;11.736;2022-08-21T09:17:12;4.20;;;3.80;;
12267;SDS011;6196;48.398;11.736;2022-08-21T09:20:08;6.33;;;4.30;;
12267;SDS011;6196;48.398;11.736;2022-08-21T09:25:41;4.73;;;4.20;;
12267;SDS011;6196;48.398;11.736;2022-08-21T09:28:17;5.67;;;3.87;;
12267;SDS011;6196;48.398;11.736;2022-08-21T09:30:43;6.40;;;5.13;;
12267;SDS011;6196;48.398;11.736;2022-08-21T09:33:11;5.83;;;4.30;;
12267;SDS011;6196;48.398;11.736;2022-08-21T09:36:15;4.73;;;4.30;;
12267;SDS011;6196;48.398;11.736;2022-08-21T09:38:36;4.20;;;3.73;;
12267;SDS011;6196;48.398;11.736;2022-08-21T09:41:05;4.23;;;3.83;;
12267;SDS011;6196;48.398;11.736;2022-08-21T09:43:36;4.30;;;3.93;;
12267;SDS011;6196;48.398;11.736;2022-08-21T09:46:25;4.00;;;3.63;;
12267;SDS011;6196;48.398;11.736;2022-08-21T09:48:54;4.07;;;3.73;;
12267;SDS011;6196;48.398;11.736;2022-08-21T09:51:29;4.00;;;3.07;;
12267;SDS011;6196;48.398;11.736;2022-08-21T09:56:33;3.77;;;3.47;;
12267;SDS011;6196;48.398;11.736;2022-08-21T09:59:50;3.50;;;3.20;;
12267;SDS011;6196;48.398;11.736;2022-08-21T10:02:28;3.87;;;3.50;;
12267;SDS011;6196;48.398;11.736;2022-08-21T10:05:00;4.13;;;3.60;;
12267;SDS011;6196;48.398;11.736;2022-08-21T10:07:36;3.77;;;3.27;;
12267;SDS011;6196;48.398;11.736;2022-08-21T10:10:08;3.77;;;3.30;;
12267;SDS011;6196;48.398;11.736;2022-08-21T10:18:42;4.23;;;3.43;;
12267;SDS011;6196;48.398;11.736;2022-08-21T10:35:42;4.57;;;3.43;;
12267;SDS011;6196;48.398;11.736;2022-08-21T10:41:39;6.00;;;3.80;;
12267;SDS011;6196;48.398;11.736;2022-08-21T10:47:19;4.03;;;3.73;;
12267;SDS011;6196;48.398;11.736;2022-08-21T10:50:10;3.73;;;3.43;;
12267;SDS011;6196;48.398;11.736;2022-08-21T10:53:11;3.50;;;3.20;;
12267;SDS011;6196;48.398;11.736;2022-08-21T10:55:59;3.43;;;3.17;;
12267;SDS011;6196;48.398;11.736;2022-08-21T10:58:37;3.47;;;3.17;;
12267;SDS011;6196;48.398;11.736;2022-08-21T11:01:24;3.53;;;3.07;;
12267;SDS011;6196;48.398;11.736;2022-08-21T11:04:09;3.93;;;3.63;;
12267;SDS011;6196;48.398;11.736;2022-08-21T11:07:06;4.53;;;3.40;;
12267;SDS011;6196;48.398;11.736;2022-08-21T11:09:45;3.10;;;2.90;;
12267;SDS011;6196;48.398;11.736;2022-08-21T11:15:26;5.03;;;3.20;;
12267;SDS011;6196;48.398;11.736;2022-08-21T11:24:15;5.50;;;3.40;;
12267;SDS011;6196;48.398;11.736;2022-08-21T11:29:46;4.53;;;3.10;;
12267;SDS011;6196;48.398;11.736;2022-08-21T11:32:24;3.40;;;2.70;;
12267;SDS011;6196;48.398;11.736;2022-08-21T11:35:20;3.80;;;3.10;;
12267;SDS011;6196;48.398;11.736;2022-08-21T11:38:26;2.80;;;2.60;;
12267;SDS011;6196;48.398;11.736;2022-08-21T11:43:44;3.10;;;2.80;;
12267;SDS011;6196;48.398;11.736;2022-08-21T11:46:24;3.78;;;3.33;;
12267;SDS011;6196;48.398;11.736;2022-08-21T11:54:52;3.00;;;2.80;;
12267;SDS011;6196;48.398;11.736;2022-08-21T11:57:41;3.20;;;2.90;;
12267;SDS011;6196;48.398;11.736;2022-08-21T12:03:27;3.00;;;2.80;;
12267;SDS011;6196;48.398;11.736;2022-08-21T12:06:02;3.20;;;2.90;;
12267;SDS011;6196;48.398;11.736;2022-08-21T12:08:38;2.67;;;2.47;;
12267;SDS011;6196;48.398;11.736;2022-08-21T12:13:54;3.05;;;2.75;;
12267;SDS011;6196;48.398;11.736;2022-08-21T12:16:37;3.05;;;2.85;;
12267;SDS011;6196;48.398;11.736;2022-08-21T12:19:09;2.67;;;2.47;;
12267;SDS011;6196;48.398;11.736;2022-08-21T12:26:57;4.10;;;2.20;;
12267;SDS011;6196;48.398;11.736;2022-08-21T12:29:48;2.88;;;2.05;;
12267;SDS011;6196;48.398;11.736;2022-08-21T12:32:21;2.92;;;2.50;;
12267;SDS011;6196;48.398;11.736;2022-08-21T12:35:10;4.80;;;2.65;;
12267;SDS011;6196;48.398;11.736;2022-08-21T12:38:01;3.47;;;2.70;;
12267;SDS011;6196;48.398;11.736;2022-08-21T12:40:43;3.55;;;2.35;;
12267;SDS011;6196;48.398;11.736;2022-08-21T12:43:18;2.50;;;2.30;;
12267;SDS011;6196;48.398;11.736;2022-08-21T12:46:15;3.25;;;2.35;;
12267;SDS011;6196;48.398;11.736;2022-08-21T12:48:54;2.38;;;2.17;;
12267;SDS011;6196;48.398;11.736;2022-08-21T12:51:42;2.83;;;2.63;;
12267;SDS011;6196;48.398;11.736;2022-08-21T12:54:29;3.40;;;2.20;;
12267;SDS011;6196;48.398;11.736;2022-08-21T12:57:04;3.80;;;2.40;;
12267;SDS011;6196;48.398;11.736;2022-08-21T12:59:36;3.63;;;2.42;;
12267;SDS011;6196;48.398;11.736;2022-08-21T13:02:13;2.67;;;2.28;;
12267;SDS011;6196;48.398;11.736;2022-08-21T13:04:45;4.97;;;2.72;;
12267;SDS011;6196;48.398;11.736;2022-08-21T13:07:25;2.42;;;2.22;;
12267;SDS011;6196;48.398;11.736;2022-08-21T13:10:04;3.97;;;2.35;;
12267;SDS011;6196;48.398;11.736;2022-08-21T13:12:43;3.28;;;2.60;;
12267;SDS011;6196;48.398;11.736;2022-08-21T13:15:11;3.00;;;2.15;;
12267;SDS011;6196;48.398;11.736;2022-08-21T13:17:42;2.75;;;2.10;;
12267;SDS011;6196;48.398;11.736;2022-08-21T13:20:19;5.47;;;2.60;;
12267;SDS011;6196;48.398;11.736;2022-08-21T13:22:49;2.75;;;2.40;;
12267;SDS011;6196;48.398;11.736;2022-08-21T13:25:18;5.80;;;2.40;;
12267;SDS011;6196;48.398;11.736;2022-08-21T13:30:49;2.65;;;2.45;;
12267;SDS011;6196;48.398;11.736;2022-08-21T13:33:19;2.50;;;2.30;;
12267;SDS011;6196;48.398;11.736;2022-08-21T13:36:14;2.95;;;2.33;;
12267;SDS011;6196;48.398;11.736;2022-08-21T13:38:51;3.65;;;2.65;;
12267;SDS011;6196;48.398;11.736;2022-08-21T13:41:21;2.33;;;2.13;;
12267;SDS011;6196;48.398;11.736;2022-08-21T13:44:04;2.47;;;2.28;;
12267;SDS011;6196;48.398;11.736;2022-08-21T13:46:46;2.95;;;2.35;;
12267;SDS011;6196;48.398;11.736;2022-08-21T13:49:17;4.18;;;2.30;;
12267;SDS011;6196;48.398;11.736;2022-08-21T13:51:48;2.47;;;2.28;;
12267;SDS011;6196;48.398;11.736;2022-08-21T13:56:50;2.70;;;2.50;;
12267;SDS011;6196;48.398;11.736;2022-08-21T13:59:23;2.55;;;2.10;;
12267;SDS011;6196;48.398;11.736;2022-08-21T14:01:55;3.28;;;2.45;;
12267;SDS011;6196;48.398;11.736;2022-08-21T14:05:00;3.45;;;2.28;;
12267;SDS011;6196;48.398;11.736;2022-08-21T14:07:36;2.58;;;2.20;;
12267;SDS011;6196;48.398;11.736;2022-08-21T14:10:10;2.67;;;2.10;;
12267;SDS011;6196;48.398;11.736;2022-08-21T14:12:52;2.92;;;2.33;;
12267;SDS011;6196;48.398;11.736;2022-08-21T14:15:26;5.10;;;2.75;;
12267;SDS011;6196;48.398;11.736;2022-08-21T14:20:42;3.97;;;2.45;;
12267;SDS011;6196;48.398;11.736;2022-08-21T14:23:11;2.53;;;2.20;;
12267;SDS011;6196;48.398;11.736;2022-08-21T14:25:41;3.45;;;2.70;;
12267;SDS011;6196;48.398;11.736;2022-08-21T14:30:52;4.25;;;2.53;;
12267;SDS011;6196;48.398;11.736;2022-08-21T14:33:27;3.13;;;2.78;;
12267;SDS011;6196;48.398;11.736;2022-08-21T14:35:57;2.67;;;2.38;;
12267;SDS011;6196;48.398;11.736;2022-08-21T14:38:25;3.05;;;2.40;;
12267;SDS011;6196;48.398;11.736;2022-08-21T14:40:57;5.28;;;2.30;;
12267;SDS011;6196;48.398;11.736;2022-08-21T14:43:30;2.70;;;2.25;;
12267;SDS011;6196;48.398;11.736;2022-08-21T14:45:58;2.90;;;2.15;;
12267;SDS011;6196;48.398;11.736;2022-08-21T14:48:26;3.45;;;2.53;;
12267;SDS011;6196;48.398;11.736;2022-08-21T14:50:53;2.60;;;2.30;;
12267;SDS011;6196;48.398;11.736;2022-08-21T14:53:25;2.95;;;2.65;;
12267;SDS011;6196;48.398;11.736;2022-08-21T14:55:53;2.42;;;2.22;;
12267;SDS011;6196;48.398;11.736;2022-08-21T14:58:37;4.70;;;2.35;;
12267;SDS011;6196;48.398;11.736;2022-08-21T15:01:09;2.92;;;2.30;;
12267;SDS011;6196;48.398;11.736;2022-08-21T15:03:38;3.30;;;2.47;;
12267;SDS011;6196;48.398;11.736;2022-08-21T15:06:05;4.10;;;2.60;;
12267;SDS011;6196;48.398;11.736;2022-08-21T15:08:33;2.58;;;2.38;;
12267;SDS011;6196;48.398;11.736;2022-08-21T15:11:01;3.65;;;2.50;;
12267;SDS011;6196;48.398;11.736;2022-08-21T15:13:42;2.35;;;2.17;;
12267;SDS011;6196;48.398;11.736;2022-08-21T15:16:10;3.08;;;2.22;;
12267;SDS011;6196;48.398;11.736;2022-08-21T15:18:38;2.85;;;2.53;;
12267;SDS011;6196;48.398;11.736;2022-08-21T15:21:06;2.85;;;2.33;;
12267;SDS011;6196;48.398;11.736;2022-08-21T15:23:33;2.95;;;2.47;;
12267;SDS011;6196;48.398;11.736;2022-08-21T15:26:05;3.80;;;2.63;;
12267;SDS011;6196;48.398;11.736;2022-08-21T15:28:33;4.07;;;2.88;;
12267;SDS011;6196;48.398;11.736;2022-08-21T15:31:00;3.70;;;2.28;;
12267;SDS011;6196;48.398;11.736;2022-08-21T15:33:28;3.05;;;2.75;;
12267;SDS011;6196;48.398;11.736;2022-08-21T15:35:56;3.53;;;2.50;;
12267;SDS011;6196;48.398;11.736;2022-08-21T15:38:23;2.83;;;2.50;;
12267;SDS011;6196;48.398;11.736;2022-08-21T15:40:51;2.75;;;2.50;;
12267;SDS011;6196;48.398;11.736;2022-08-21T15:43:21;2.78;;;2.50;;
12267;SDS011;6196;48.398;11.736;2022-08-21T15:45:55;4.80;;;2.83;;
12267;SDS011;6196;48.398;11.736;2022-08-21T15:48:26;5.00;;;2.80;;
12267;SDS011;6196;48.398;11.736;2022-08-21T15:50:54;2.63;;;2.42;;
12267;SDS011;6196;48.398;11.736;2022-08-21T15:53:21;2.97;;;2.65;;
12267;SDS011;6196;48.398;11.736;2022-08-21T15:55:48;3.30;;;2.97;;
12267;SDS011;6196;48.398;11.736;2022-08-21T15:58:16;3.47;;;3.10;;
12267;SDS011;6196;48.398;11.736;2022-08-21T16:00:45;4.20;;;3.03;;
12267;SDS011;6196;48.398;11.736;2022-08-21T16:03:14;3.50;;;3.10;;
12267;SDS011;6196;48.398;11.736;2022-08-21T16:05:45;4.45;;;2.65;;
12267;SDS011;6196;48.398;11.736;2022-08-21T16:08:14;6.25;;;3.20;;
12267;SDS011;6196;48.398;11.736;2022-08-21T16:10:41;2.85;;;2.65;;
12267;SDS011;6196;48.398;11.736;2022-08-21T16:13:15;5.35;;;2.97;;
12267;SDS011;6196;48.398;11.736;2022-08-21T16:16:01;3.95;;;3.00;;
12267;SDS011;6196;48.398;11.736;2022-08-21T16:18:28;4.17;;;2.90;;
12267;SDS011;6196;48.398;11.736;2022-08-21T16:20:55;3.80;;;2.70;;
12267;SDS011;6196;48.398;11.736;2022-08-21T16:23:22;3.03;;;2.73;;
12267;SDS011;6196;48.398;11.736;2022-08-21T16:25:49;2.93;;;2.63;;
12267;SDS011;6196;48.398;11.736;2022-08-21T16:28:17;2.77;;;2.57;;
12267;SDS011;6196;48.398;11.736;2022-08-21T16:30:46;3.47;;;2.70;;
12267;SDS011;6196;48.398;11.736;2022-08-21T16:33:24;2.70;;;2.50;;
12267;SDS011;6196;48.398;11.736;2022-08-21T16:35:58;4.40;;;2.77;;
12267;SDS011;6196;48.398;11.736;2022-08-21T16:38:26;3.97;;;2.80;;
12267;SDS011;6196;48.398;11.736;2022-08-21T16:40:54;3.97;;;2.83;;
12267;SDS011;6196;48.398;11.736;2022-08-21T16:43:22;4.07;;;2.77;;